Time;durP1;ratioP1;P1;durP2;ratioP2;P2;SDS_P1;SDS_P2;PMS_P1;PMS_P2;Temp;Humidity;BMP_temperature;BMP_pressure;BME280_temperature;BME280_humidity;BME280_pressure;Samples;Min_cycle;Max_cycle;Signal;HPM_P1;HPM_P2
2022/03/04 00:01:55;;;;;;;47.42;31.75;;;;;;;;;;5041957;28;20416;-86
2022/03/04 00:04:24;;;;;;;49.95;33.08;;;;;;;;;;5035395;28;20401;-87
2022/03/04 00:06:50;;;;;;;49.70;32.63;;;;;;;;;;5042318;28;20404;-85
2022/03/04 00:09:19;;;;;;;48.20;32.33;;;;;;;;;;5036381;28;20876;-85
2022/03/04 00:11:46;;;;;;;49.27;32.80;;;;;;;;;;5036299;28;20515;-86
2022/03/04 00:14:13;;;;;;;49.63;32.00;;;;;;;;;;5036944;28;20416;-85
2022/03/04 00:16:40;;;;;;;50.30;32.50;;;;;;;;;;5041457;28;20499;-86
2022/03/04 00:19:08;;;;;;;48.50;32.65;;;;;;;;;;5035338;28;21006;-87
2022/03/04 00:21:38;;;;;;;49.17;33.00;;;;;;;;;;5042222;28;20924;-86
2022/03/04 00:24:06;;;;;;;52.25;33.75;;;;;;;;;;5039008;28;20428;-85
2022/03/04 00:26:34;;;;;;;51.95;33.17;;;;;;;;;;5042281;28;20422;-85
2022/03/04 00:29:01;;;;;;;49.67;34.05;;;;;;;;;;5043198;28;20388;-85
2022/03/04 00:31:28;;;;;;;50.83;32.72;;;;;;;;;;5033252;28;20413;-85
2022/03/04 00:33:55;;;;;;;49.53;34.20;;;;;;;;;;5039787;28;20464;-85
2022/03/04 00:36:23;;;;;;;50.00;32.70;;;;;;;;;;5040085;28;21153;-86
2022/03/04 00:38:52;;;;;;;47.40;32.63;;;;;;;;;;5036185;28;20409;-85
2022/03/04 00:41:20;;;;;;;51.60;32.88;;;;;;;;;;5034961;28;20436;-86
2022/03/04 00:43:47;;;;;;;51.20;33.65;;;;;;;;;;5039723;28;20910;-86
2022/03/04 00:46:15;;;;;;;48.28;32.20;;;;;;;;;;5048174;28;20444;-85
2022/03/04 00:48:42;;;;;;;51.60;32.83;;;;;;;;;;5061119;28;20415;-85
2022/03/04 00:51:10;;;;;;;48.67;32.72;;;;;;;;;;5042371;28;20914;-85
2022/03/04 00:53:37;;;;;;;51.75;33.22;;;;;;;;;;5035279;28;20852;-86
2022/03/04 00:56:07;;;;;;;48.00;32.20;;;;;;;;;;5037170;28;20439;-85
2022/03/04 00:58:34;;;;;;;51.60;33.90;;;;;;;;;;5039474;28;20416;-86
2022/03/04 01:01:01;;;;;;;48.97;32.80;;;;;;;;;;5034274;28;20531;-85
2022/03/04 01:03:28;;;;;;;50.42;33.50;;;;;;;;;;5036071;28;20418;-87
2022/03/04 01:05:54;;;;;;;48.97;33.05;;;;;;;;;;5039843;28;20412;-86
2022/03/04 01:08:21;;;;;;;50.05;33.42;;;;;;;;;;5041434;28;20791;-86
2022/03/04 01:10:48;;;;;;;51.30;34.03;;;;;;;;;;5038954;28;20420;-85
2022/03/04 01:13:17;;;;;;;49.67;32.83;;;;;;;;;;5031973;28;20404;-87
2022/03/04 01:15:44;;;;;;;48.58;31.65;;;;;;;;;;5039279;28;20736;-85
2022/03/04 01:18:12;;;;;;;49.90;31.67;;;;;;;;;;5038431;28;20807;-86
2022/03/04 01:20:39;;;;;;;48.22;31.13;;;;;;;;;;5041933;28;20421;-86
2022/03/04 01:23:06;;;;;;;50.17;31.60;;;;;;;;;;5038991;28;20425;-87
2022/03/04 01:25:33;;;;;;;45.45;30.45;;;;;;;;;;5033834;28;20419;-85
2022/03/04 01:28:00;;;;;;;55.27;32.13;;;;;;;;;;5032877;28;20477;-85
2022/03/04 01:30:28;;;;;;;48.05;31.35;;;;;;;;;;5035861;28;20411;-86
2022/03/04 01:32:55;;;;;;;47.15;30.33;;;;;;;;;;5035073;28;20498;-87
2022/03/04 01:35:22;;;;;;;45.57;30.10;;;;;;;;;;5034206;28;20478;-86
2022/03/04 01:37:49;;;;;;;47.28;30.60;;;;;;;;;;5035777;28;20400;-89
2022/03/04 01:40:16;;;;;;;47.23;31.27;;;;;;;;;;5035237;28;20442;-86
2022/03/04 01:42:43;;;;;;;47.97;31.20;;;;;;;;;;5038806;28;20834;-85
2022/03/04 01:45:11;;;;;;;47.33;31.70;;;;;;;;;;5041359;28;20401;-85
2022/03/04 01:47:43;;;;;;;48.53;31.45;;;;;;;;;;5034887;28;20405;-85
2022/03/04 01:50:10;;;;;;;48.10;31.08;;;;;;;;;;5034502;28;20432;-86
2022/03/04 01:52:38;;;;;;;48.10;31.33;;;;;;;;;;5039021;28;20405;-87
2022/03/04 01:55:06;;;;;;;48.08;31.23;;;;;;;;;;5039096;28;20414;-84
2022/03/04 01:57:33;;;;;;;46.70;30.15;;;;;;;;;;5039089;28;20418;-85
2022/03/04 02:00:00;;;;;;;45.95;31.25;;;;;;;;;;5038974;28;20416;-85
2022/03/04 02:02:27;;;;;;;47.95;31.50;;;;;;;;;;5041290;28;20435;-86
2022/03/04 02:04:56;;;;;;;48.20;31.70;;;;;;;;;;5041915;28;20412;-87
2022/03/04 02:07:23;;;;;;;47.15;30.38;;;;;;;;;;5041229;28;20822;-86
2022/03/04 02:09:50;;;;;;;47.55;31.30;;;;;;;;;;5037290;28;20413;-87
2022/03/04 02:12:16;;;;;;;46.17;30.13;;;;;;;;;;5039549;28;20500;-87
2022/03/04 02:14:43;;;;;;;48.33;31.83;;;;;;;;;;5041215;28;20793;-87
2022/03/04 02:17:10;;;;;;;50.03;30.52;;;;;;;;;;5045163;28;20751;-86
2022/03/04 02:19:37;;;;;;;49.83;31.58;;;;;;;;;;5046699;28;20412;-85
2022/03/04 02:22:07;;;;;;;47.17;31.02;;;;;;;;;;5041382;28;20496;-86
2022/03/04 02:24:34;;;;;;;48.10;31.73;;;;;;;;;;5037031;28;20496;-85
2022/03/04 02:27:03;;;;;;;49.08;30.95;;;;;;;;;;5042083;28;20408;-84
2022/03/04 02:29:31;;;;;;;49.72;31.60;;;;;;;;;;5042897;28;20457;-88
2022/03/04 02:31:58;;;;;;;48.13;30.45;;;;;;;;;;5037079;28;20453;-87
2022/03/04 02:34:25;;;;;;;48.65;30.35;;;;;;;;;;5042683;28;20520;-86
2022/03/04 02:36:52;;;;;;;50.37;32.63;;;;;;;;;;5039004;28;20413;-86
2022/03/04 02:39:21;;;;;;;48.25;32.03;;;;;;;;;;5042155;28;20417;-86
2022/03/04 02:41:47;;;;;;;45.97;31.00;;;;;;;;;;5032556;28;20415;-86
2022/03/04 02:44:15;;;;;;;49.63;31.30;;;;;;;;;;5045909;28;20419;-88
2022/03/04 02:46:42;;;;;;;50.08;31.45;;;;;;;;;;5038642;28;20408;-86
2022/03/04 02:49:11;;;;;;;47.35;31.48;;;;;;;;;;5042319;28;20409;-85
2022/03/04 02:51:39;;;;;;;48.55;32.83;;;;;;;;;;5042820;28;20413;-86
2022/03/04 02:54:06;;;;;;;49.37;31.57;;;;;;;;;;5045708;28;20906;-86
2022/03/04 02:56:34;;;;;;;49.40;31.35;;;;;;;;;;5046012;28;20415;-85
2022/03/04 02:59:01;;;;;;;45.97;30.80;;;;;;;;;;5043129;28;20409;-86
2022/03/04 03:01:28;;;;;;;49.08;31.27;;;;;;;;;;5037324;28;20739;-85
2022/03/04 03:03:55;;;;;;;50.00;33.60;;;;;;;;;;5037138;28;20556;-85
2022/03/04 03:06:22;;;;;;;55.35;33.78;;;;;;;;;;5040035;28;20404;-86
2022/03/04 03:08:49;;;;;;;53.38;34.78;;;;;;;;;;5037436;28;20444;-86
2022/03/04 03:11:16;;;;;;;50.95;33.50;;;;;;;;;;5040202;28;20833;-85
2022/03/04 03:13:44;;;;;;;52.92;33.67;;;;;;;;;;5040521;28;20465;-86
2022/03/04 03:16:11;;;;;;;52.63;34.72;;;;;;;;;;5037280;28;20412;-85
2022/03/04 03:18:38;;;;;;;54.22;34.47;;;;;;;;;;5039368;28;20413;-85
2022/03/04 03:21:05;;;;;;;54.50;34.20;;;;;;;;;;5036763;28;20397;-86
2022/03/04 03:23:32;;;;;;;53.58;35.45;;;;;;;;;;5041527;28;20416;-88
2022/03/04 03:25:59;;;;;;;55.05;36.53;;;;;;;;;;5031343;28;20427;-86
2022/03/04 03:28:26;;;;;;;54.67;35.30;;;;;;;;;;5036897;28;20413;-85
2022/03/04 03:30:55;;;;;;;57.67;36.80;;;;;;;;;;5041154;28;20399;-86
2022/03/04 03:33:22;;;;;;;55.42;36.17;;;;;;;;;;5037335;28;20408;-86
2022/03/04 03:35:48;;;;;;;57.00;37.92;;;;;;;;;;5036703;28;20433;-87
2022/03/04 03:38:16;;;;;;;58.33;37.58;;;;;;;;;;5040401;28;20408;-86
2022/03/04 03:40:43;;;;;;;57.03;36.53;;;;;;;;;;5040378;28;20407;-87
2022/03/04 03:43:09;;;;;;;56.63;36.80;;;;;;;;;;5039504;28;20955;-86
2022/03/04 03:45:36;;;;;;;57.55;36.83;;;;;;;;;;5035376;28;20939;-87
2022/03/04 03:48:05;;;;;;;57.92;37.72;;;;;;;;;;5045199;28;20409;-86
2022/03/04 03:50:32;;;;;;;55.92;36.10;;;;;;;;;;5056180;28;20403;-87
2022/03/04 03:52:59;;;;;;;57.75;36.92;;;;;;;;;;5036725;28;20400;-86
2022/03/04 03:55:26;;;;;;;58.03;37.03;;;;;;;;;;5035870;28;20876;-86
2022/03/04 03:57:53;;;;;;;61.70;37.80;;;;;;;;;;5036057;28;20875;-85
2022/03/04 04:00:20;;;;;;;61.22;37.60;;;;;;;;;;5035576;28;20406;-86
2022/03/04 04:02:47;;;;;;;57.95;37.65;;;;;;;;;;5031986;28;20963;-86
2022/03/04 04:05:15;;;;;;;58.23;37.60;;;;;;;;;;5038797;28;20415;-87
2022/03/04 04:07:42;;;;;;;57.87;37.40;;;;;;;;;;5036623;28;20520;-85
2022/03/04 04:10:10;;;;;;;58.30;37.85;;;;;;;;;;5038221;28;20414;-84
2022/03/04 04:12:36;;;;;;;55.92;37.25;;;;;;;;;;5037276;28;20407;-86
2022/03/04 04:15:04;;;;;;;57.47;37.42;;;;;;;;;;5037518;28;20410;-86
2022/03/04 04:17:31;;;;;;;58.88;37.28;;;;;;;;;;5037958;28;20400;-86
2022/03/04 04:19:58;;;;;;;58.33;36.63;;;;;;;;;;5040037;28;20429;-86
2022/03/04 04:22:27;;;;;;;55.88;35.97;;;;;;;;;;5035459;28;20436;-87
2022/03/04 04:24:54;;;;;;;56.95;36.95;;;;;;;;;;5035011;28;20421;-85
2022/03/04 04:27:21;;;;;;;58.92;36.00;;;;;;;;;;5038951;28;20729;-86
2022/03/04 04:29:48;;;;;;;54.60;35.97;;;;;;;;;;5031343;28;20403;-86
2022/03/04 04:32:14;;;;;;;59.28;37.13;;;;;;;;;;5031047;28;20421;-86
2022/03/04 04:34:41;;;;;;;57.92;37.28;;;;;;;;;;5035724;28;20461;-86
2022/03/04 04:37:08;;;;;;;60.13;37.08;;;;;;;;;;5037691;28;20424;-86
2022/03/04 04:39:36;;;;;;;58.67;37.80;;;;;;;;;;5038426;28;20816;-85
2022/03/04 04:42:05;;;;;;;60.08;38.75;;;;;;;;;;5035993;28;20827;-86
2022/03/04 04:44:32;;;;;;;59.15;38.15;;;;;;;;;;5039147;28;20431;-85
2022/03/04 04:46:59;;;;;;;61.30;38.70;;;;;;;;;;5035885;28;20401;-86
2022/03/04 04:49:26;;;;;;;61.60;39.15;;;;;;;;;;5038123;28;20469;-86
2022/03/04 04:51:53;;;;;;;63.92;40.90;;;;;;;;;;5035700;28;20405;-88
2022/03/04 04:54:20;;;;;;;60.15;39.30;;;;;;;;;;5034791;28;20471;-88
2022/03/04 04:56:48;;;;;;;62.53;40.28;;;;;;;;;;5039142;28;20435;-88
2022/03/04 04:59:15;;;;;;;65.70;40.38;;;;;;;;;;5034845;28;20404;-89
2022/03/04 05:01:43;;;;;;;64.18;40.92;;;;;;;;;;5038813;28;20404;-87
2022/03/04 05:04:10;;;;;;;68.93;42.97;;;;;;;;;;5027590;28;20432;-89
2022/03/04 05:06:37;;;;;;;63.97;41.95;;;;;;;;;;5032146;28;20493;-88
2022/03/04 05:09:04;;;;;;;65.53;42.33;;;;;;;;;;5032992;28;20983;-88
2022/03/04 05:11:30;;;;;;;68.47;43.67;;;;;;;;;;5027708;28;20447;-88
2022/03/04 05:13:59;;;;;;;70.75;44.60;;;;;;;;;;5035290;28;20927;-88
2022/03/04 05:16:26;;;;;;;75.55;45.42;;;;;;;;;;5027274;28;20417;-89
2022/03/04 05:18:53;;;;;;;73.43;46.45;;;;;;;;;;5031056;28;20942;-87
2022/03/04 05:21:19;;;;;;;74.13;45.03;;;;;;;;;;5039198;28;20463;-88
2022/03/04 05:24:02;;;;;;;75.07;45.47;;;;;;;;;;5026938;28;20471;-88
2022/03/04 05:26:30;;;;;;;72.05;45.60;;;;;;;;;;5034781;28;20406;-88
2022/03/04 05:28:59;;;;;;;73.45;46.58;;;;;;;;;;5026870;28;20409;-88
2022/03/04 05:31:26;;;;;;;75.15;46.90;;;;;;;;;;5027278;28;20413;-88
2022/03/04 05:33:54;;;;;;;75.18;45.78;;;;;;;;;;5026728;28;20416;-88
2022/03/04 05:36:22;;;;;;;75.05;46.50;;;;;;;;;;5026589;28;20405;-88
2022/03/04 05:38:49;;;;;;;71.03;44.67;;;;;;;;;;5026916;28;20409;-88
2022/03/04 05:41:17;;;;;;;73.90;45.05;;;;;;;;;;5031124;28;20405;-87
2022/03/04 05:43:44;;;;;;;73.40;44.78;;;;;;;;;;5034915;28;20530;-88
2022/03/04 05:46:13;;;;;;;74.23;45.17;;;;;;;;;;5026619;28;20451;-88
2022/03/04 05:48:40;;;;;;;74.07;45.10;;;;;;;;;;5026161;28;20417;-89
2022/03/04 05:51:07;;;;;;;71.32;44.78;;;;;;;;;;5026302;28;20409;-88
2022/03/04 05:53:34;;;;;;;70.97;44.58;;;;;;;;;;5027651;28;20397;-88
2022/03/04 05:56:02;;;;;;;68.78;43.42;;;;;;;;;;5026654;28;20405;-87
2022/03/04 05:58:29;;;;;;;75.07;44.22;;;;;;;;;;5026910;28;21028;-88
2022/03/04 06:00:56;;;;;;;72.95;44.03;;;;;;;;;;5023906;28;20431;-89
2022/03/04 06:03:24;;;;;;;71.78;43.88;;;;;;;;;;5029259;28;20463;-88
2022/03/04 06:05:51;;;;;;;70.57;43.40;;;;;;;;;;5023584;28;20979;-88
2022/03/04 06:08:18;;;;;;;70.53;43.63;;;;;;;;;;5025500;28;20412;-88
2022/03/04 06:10:46;;;;;;;70.15;42.30;;;;;;;;;;5024246;28;20405;-88
2022/03/04 06:13:13;;;;;;;70.55;43.05;;;;;;;;;;5028501;28;20407;-89
2022/03/04 06:16:05;;;;;;;73.30;43.85;;;;;;;;;;5024386;28;20408;-88
2022/03/04 06:18:34;;;;;;;72.85;44.20;;;;;;;;;;5026713;28;20415;-88
2022/03/04 06:21:01;;;;;;;72.20;43.92;;;;;;;;;;5026477;28;20456;-88
2022/03/04 06:23:28;;;;;;;72.53;43.90;;;;;;;;;;5025823;28;20417;-87
2022/03/04 06:25:57;;;;;;;77.18;45.60;;;;;;;;;;5026119;28;20421;-88
2022/03/04 06:28:25;;;;;;;73.35;43.63;;;;;;;;;;5025124;28;20437;-87
2022/03/04 06:30:52;;;;;;;71.15;42.75;;;;;;;;;;5025259;28;20405;-88
2022/03/04 06:33:32;;;;;;;72.22;42.70;;;;;;;;;;5026237;28;20413;-89
2022/03/04 06:36:03;;;;;;;70.97;43.03;;;;;;;;;;5025099;28;20475;-89
2022/03/04 06:38:31;;;;;;;69.20;42.10;;;;;;;;;;5026875;28;20409;-85
2022/03/04 06:40:58;;;;;;;70.90;42.95;;;;;;;;;;5027085;28;20413;-88
2022/03/04 06:43:25;;;;;;;70.22;42.65;;;;;;;;;;5028312;28;20409;-87
2022/03/04 06:45:52;;;;;;;67.10;40.92;;;;;;;;;;5043739;28;20845;-88
2022/03/04 06:48:21;;;;;;;65.88;40.80;;;;;;;;;;5041203;28;20747;-87
2022/03/04 06:50:49;;;;;;;61.58;38.03;;;;;;;;;;5026826;28;20954;-88
2022/03/04 06:53:17;;;;;;;61.38;37.38;;;;;;;;;;5026568;28;20430;-88
2022/03/04 06:55:45;;;;;;;64.37;38.03;;;;;;;;;;5028142;28;20404;-89
2022/03/04 06:58:12;;;;;;;61.30;37.50;;;;;;;;;;5030147;28;20421;-87
2022/03/04 07:00:39;;;;;;;61.28;37.67;;;;;;;;;;5030159;28;20460;-89
2022/03/04 07:03:06;;;;;;;60.38;36.88;;;;;;;;;;5028790;28;20734;-89
2022/03/04 07:05:33;;;;;;;61.08;37.55;;;;;;;;;;5029781;28;20402;-89
2022/03/04 07:08:00;;;;;;;64.97;38.80;;;;;;;;;;5026193;28;20878;-89
2022/03/04 07:10:29;;;;;;;60.60;38.95;;;;;;;;;;5030562;28;20413;-89
2022/03/04 07:12:56;;;;;;;63.47;39.03;;;;;;;;;;5030827;28;20758;-89
2022/03/04 07:15:23;;;;;;;61.35;38.38;;;;;;;;;;5029023;28;20409;-89
2022/03/04 07:17:50;;;;;;;60.72;37.17;;;;;;;;;;5030060;28;20414;-88
2022/03/04 07:20:16;;;;;;;59.10;36.90;;;;;;;;;;5029790;28;20467;-90
2022/03/04 07:22:43;;;;;;;61.10;37.60;;;;;;;;;;5033698;28;20400;-90
2022/03/04 07:25:12;;;;;;;62.03;36.65;;;;;;;;;;5030451;28;20820;-89
2022/03/04 07:27:41;;;;;;;59.67;36.08;;;;;;;;;;5032744;28;20405;-90
2022/03/04 07:30:10;;;;;;;57.45;36.35;;;;;;;;;;5031662;28;20405;-89
2022/03/04 07:32:38;;;;;;;54.67;35.03;;;;;;;;;;5033149;28;20403;-89
2022/03/04 07:35:08;;;;;;;51.00;32.15;;;;;;;;;;5033343;28;20397;-90
2022/03/04 07:37:35;;;;;;;50.58;31.33;;;;;;;;;;5033627;28;20413;-89
2022/03/04 07:40:02;;;;;;;48.95;30.00;;;;;;;;;;5029905;28;20404;-89
2022/03/04 07:42:29;;;;;;;46.83;30.40;;;;;;;;;;5033414;28;20399;-89
2022/03/04 07:44:57;;;;;;;52.17;31.65;;;;;;;;;;5030459;28;20417;-89
2022/03/04 07:47:25;;;;;;;50.00;30.13;;;;;;;;;;5027256;28;20785;-89
2022/03/04 07:49:52;;;;;;;47.35;28.95;;;;;;;;;;5029843;28;20401;-90
2022/03/04 07:52:19;;;;;;;40.97;27.30;;;;;;;;;;5029685;28;20402;-90
2022/03/04 07:54:46;;;;;;;38.45;22.83;;;;;;;;;;5030987;28;20768;-88
2022/03/04 07:57:13;;;;;;;39.28;21.20;;;;;;;;;;5030603;28;20902;-89
2022/03/04 07:59:39;;;;;;;31.02;19.60;;;;;;;;;;5030024;28;20820;-90
2022/03/04 08:02:08;;;;;;;29.80;18.77;;;;;;;;;;5030631;28;20412;-90
2022/03/04 08:04:35;;;;;;;29.77;19.80;;;;;;;;;;5029233;28;20816;-89
2022/03/04 08:07:02;;;;;;;27.52;18.08;;;;;;;;;;5029290;28;20459;-89
2022/03/04 08:09:29;;;;;;;27.02;17.85;;;;;;;;;;5029489;28;20409;-90
2022/03/04 08:11:55;;;;;;;28.23;18.20;;;;;;;;;;5032807;28;20411;-90
2022/03/04 08:14:22;;;;;;;29.10;18.00;;;;;;;;;;5028918;28;20956;-89
2022/03/04 08:16:49;;;;;;;27.95;18.00;;;;;;;;;;5030279;28;20401;-90
2022/03/04 08:19:17;;;;;;;25.50;17.52;;;;;;;;;;5032951;28;20412;-89
2022/03/04 08:21:45;;;;;;;30.95;18.10;;;;;;;;;;5031217;28;20403;-90
2022/03/04 08:24:12;;;;;;;28.63;18.08;;;;;;;;;;5032238;28;20417;-89
2022/03/04 08:26:41;;;;;;;33.25;18.27;;;;;;;;;;5030227;28;20402;-88
2022/03/04 08:29:09;;;;;;;28.70;18.50;;;;;;;;;;5028818;28;20424;-88
2022/03/04 08:31:36;;;;;;;30.02;17.65;;;;;;;;;;5033073;28;20414;-89
2022/03/04 08:34:03;;;;;;;28.83;17.65;;;;;;;;;;5027732;28;20425;-90
2022/03/04 08:36:32;;;;;;;29.33;18.67;;;;;;;;;;5032927;28;20986;-89
2022/03/04 08:39:03;;;;;;;27.33;17.77;;;;;;;;;;5033418;28;20441;-90
2022/03/04 08:41:30;;;;;;;29.48;18.48;;;;;;;;;;5030313;28;20413;-90
2022/03/04 08:43:56;;;;;;;31.20;18.38;;;;;;;;;;5030162;28;20464;-89
2022/03/04 08:46:23;;;;;;;25.85;17.85;;;;;;;;;;5025641;28;20406;-89
2022/03/04 08:48:50;;;;;;;29.70;19.33;;;;;;;;;;5029871;28;20484;-89
2022/03/04 08:51:17;;;;;;;29.10;18.13;;;;;;;;;;5033057;28;20692;-89
2022/03/04 08:53:45;;;;;;;31.10;17.98;;;;;;;;;;5030725;28;20400;-89
2022/03/04 08:56:12;;;;;;;27.02;16.77;;;;;;;;;;5029841;28;20393;-89
2022/03/04 08:58:39;;;;;;;25.20;17.50;;;;;;;;;;5032027;28;20401;-90
2022/03/04 09:01:06;;;;;;;26.63;17.20;;;;;;;;;;5030431;28;20409;-89
2022/03/04 09:03:33;;;;;;;25.15;16.98;;;;;;;;;;5030373;28;20409;-89
2022/03/04 09:06:00;;;;;;;28.48;16.23;;;;;;;;;;5029689;28;20436;-89
2022/03/04 09:08:27;;;;;;;23.30;16.25;;;;;;;;;;5011700;28;20394;-89
2022/03/04 09:10:55;;;;;;;22.90;16.00;;;;;;;;;;5028776;28;20401;-89
2022/03/04 09:13:23;;;;;;;24.45;15.98;;;;;;;;;;5030090;28;20433;-89
2022/03/04 09:15:50;;;;;;;23.38;16.17;;;;;;;;;;5030980;28;20803;-89
2022/03/04 09:18:17;;;;;;;23.77;16.08;;;;;;;;;;5029082;28;20482;-89
2022/03/04 09:20:44;;;;;;;24.00;15.93;;;;;;;;;;5030340;28;20412;-89
2022/03/04 09:23:11;;;;;;;24.48;16.58;;;;;;;;;;5030893;28;20417;-90
2022/03/04 09:25:38;;;;;;;25.15;16.17;;;;;;;;;;5028763;28;20410;-91
2022/03/04 09:28:07;;;;;;;22.98;15.32;;;;;;;;;;5031928;28;20538;-91
2022/03/04 09:30:36;;;;;;;22.73;16.00;;;;;;;;;;5032580;28;20417;-91
2022/03/04 09:33:03;;;;;;;22.60;14.57;;;;;;;;;;5029585;28;20420;-91
2022/03/04 09:35:30;;;;;;;21.95;14.15;;;;;;;;;;5030922;28;20508;-92
2022/03/04 09:37:57;;;;;;;21.13;14.13;;;;;;;;;;5030031;28;20905;-91
2022/03/04 09:40:24;;;;;;;21.92;14.35;;;;;;;;;;5029473;28;20405;-90
2022/03/04 09:42:52;;;;;;;21.83;13.52;;;;;;;;;;5030626;28;20599;-91
2022/03/04 09:45:20;;;;;;;20.33;13.88;;;;;;;;;;5030888;28;20420;-90
2022/03/04 09:47:47;;;;;;;22.38;14.32;;;;;;;;;;5030571;28;20434;-91
2022/03/04 09:50:16;;;;;;;20.77;13.43;;;;;;;;;;5026062;28;20592;-91
2022/03/04 09:52:45;;;;;;;19.90;13.40;;;;;;;;;;5029804;28;20401;-90
2022/03/04 09:55:13;;;;;;;19.73;13.80;;;;;;;;;;5041280;28;20444;-91
2022/03/04 09:57:40;;;;;;;20.67;14.63;;;;;;;;;;5049614;28;20409;-92
2022/03/04 10:00:11;;;;;;;21.53;14.53;;;;;;;;;;5051879;28;20407;-92
2022/03/04 10:02:40;;;;;;;20.77;14.13;;;;;;;;;;5047226;28;20409;-92
2022/03/04 10:05:08;;;;;;;20.27;13.82;;;;;;;;;;5033444;28;20421;-92
2022/03/04 10:07:40;;;;;;;20.35;14.20;;;;;;;;;;5031475;28;20410;-92
2022/03/04 10:10:15;;;;;;;21.02;14.25;;;;;;;;;;5031059;28;21093;-93
2022/03/04 10:12:55;;;;;;;21.38;14.35;;;;;;;;;;5033406;28;20419;-91
2022/03/04 10:15:23;;;;;;;21.45;14.27;;;;;;;;;;5030244;28;20430;-91
2022/03/04 10:18:07;;;;;;;20.52;13.88;;;;;;;;;;5030342;28;20413;-91
2022/03/04 10:20:39;;;;;;;19.17;13.45;;;;;;;;;;5030771;28;20440;-92
2022/03/04 10:23:15;;;;;;;19.35;13.52;;;;;;;;;;5031472;28;20418;-92
2022/03/04 10:25:45;;;;;;;17.95;12.73;;;;;;;;;;5032948;28;20469;-92
2022/03/04 10:28:13;;;;;;;19.00;12.73;;;;;;;;;;5031184;28;20459;-92
2022/03/04 10:30:44;;;;;;;18.67;12.35;;;;;;;;;;5032759;28;20474;-91
2022/03/04 10:33:15;;;;;;;17.07;12.07;;;;;;;;;;5034178;28;20510;-92
2022/03/04 10:35:41;;;;;;;17.95;11.98;;;;;;;;;;5036834;28;20534;-91
2022/03/04 10:38:21;;;;;;;18.45;11.88;;;;;;;;;;5037240;28;20401;-93
2022/03/04 10:40:49;;;;;;;17.60;12.55;;;;;;;;;;5035067;28;20477;-92
2022/03/04 10:43:23;;;;;;;18.00;12.17;;;;;;;;;;5033995;28;20447;-93
2022/03/04 10:45:59;;;;;;;18.13;12.43;;;;;;;;;;5032626;28;20458;-93
2022/03/04 10:48:27;;;;;;;16.85;12.05;;;;;;;;;;5032378;28;20771;-92
2022/03/04 10:50:56;;;;;;;22.13;11.98;;;;;;;;;;5032354;28;20447;-93
2022/03/04 10:53:24;;;;;;;17.27;12.23;;;;;;;;;;5036517;28;20459;-92
2022/03/04 10:55:52;;;;;;;19.85;12.77;;;;;;;;;;5033237;28;20461;-93
2022/03/04 10:58:21;;;;;;;16.15;11.60;;;;;;;;;;5032905;28;20471;-93
2022/03/04 11:00:50;;;;;;;15.55;11.32;;;;;;;;;;5034783;28;20918;-92
2022/03/04 11:03:19;;;;;;;16.45;12.32;;;;;;;;;;5032895;28;20461;-93
2022/03/04 11:05:48;;;;;;;20.77;13.48;;;;;;;;;;5034767;28;20411;-93
2022/03/04 11:08:16;;;;;;;18.23;12.65;;;;;;;;;;5034918;28;20418;-93
2022/03/04 11:10:43;;;;;;;17.90;12.97;;;;;;;;;;5035542;28;20517;-92
2022/03/04 11:13:11;;;;;;;17.48;12.52;;;;;;;;;;5034608;28;20461;-93
2022/03/04 11:15:39;;;;;;;19.55;12.98;;;;;;;;;;5035049;28;20448;-94
2022/03/04 11:18:08;;;;;;;16.52;12.52;;;;;;;;;;5035138;28;20786;-93
2022/03/04 11:20:35;;;;;;;19.10;13.13;;;;;;;;;;5033252;28;20465;-93
2022/03/04 11:23:05;;;;;;;16.50;11.82;;;;;;;;;;5036797;28;20410;-93
2022/03/04 11:25:37;;;;;;;19.17;12.52;;;;;;;;;;5034382;28;20437;-93
2022/03/04 11:28:11;;;;;;;18.10;13.32;;;;;;;;;;5033229;28;20447;-93
2022/03/04 11:30:41;;;;;;;17.92;13.45;;;;;;;;;;5035308;28;20532;-93
2022/03/04 11:33:20;;;;;;;18.85;13.85;;;;;;;;;;5032614;28;20409;-93
2022/03/04 11:36:07;;;;;;;18.80;13.75;;;;;;;;;;5030536;28;20560;-93
2022/03/04 11:39:12;;;;;;;21.52;13.93;;;;;;;;;;5032908;28;20409;-93
2022/03/04 11:41:55;;;;;;;17.65;13.70;;;;;;;;;;5032492;28;20409;-94
2022/03/04 11:44:23;;;;;;;20.63;14.07;;;;;;;;;;5034479;28;20502;-93
2022/03/04 11:46:52;;;;;;;18.95;13.85;;;;;;;;;;5032605;28;20494;-93
2022/03/04 11:49:24;;;;;;;18.80;13.05;;;;;;;;;;5030266;28;20462;-92
2022/03/04 11:52:25;;;;;;;17.98;13.07;;;;;;;;;;5026488;28;20413;-92
2022/03/04 11:55:23;;;;;;;18.30;13.25;;;;;;;;;;5032701;28;20410;-92
2022/03/04 11:58:01;;;;;;;17.15;12.57;;;;;;;;;;5029936;28;20515;-93
2022/03/04 12:00:30;;;;;;;17.35;12.65;;;;;;;;;;5031714;28;20409;-93
2022/03/04 12:02:59;;;;;;;17.08;12.23;;;;;;;;;;5031660;28;20413;-92
2022/03/04 12:05:29;;;;;;;16.77;12.05;;;;;;;;;;5033761;28;20430;-93
2022/03/04 12:08:13;;;;;;;18.47;12.43;;;;;;;;;;5034877;28;20599;-92
2022/03/04 12:10:54;;;;;;;16.90;11.38;;;;;;;;;;5033328;28;20490;-92
2022/03/04 12:13:24;;;;;;;17.73;12.35;;;;;;;;;;5032598;28;20459;-92
2022/03/04 12:15:56;;;;;;;18.20;11.63;;;;;;;;;;5034250;28;20905;-91
2022/03/04 12:18:35;;;;;;;17.33;11.20;;;;;;;;;;5034322;28;20477;-90
2022/03/04 12:21:13;;;;;;;16.27;12.48;;;;;;;;;;5032444;28;20413;-91
2022/03/04 12:23:49;;;;;;;16.65;12.30;;;;;;;;;;5029562;28;20574;-90
2022/03/04 12:26:25;;;;;;;15.35;11.07;;;;;;;;;;5031356;28;20423;-91
2022/03/04 12:29:02;;;;;;;15.52;11.07;;;;;;;;;;5024551;28;20426;-90
2022/03/04 12:31:33;;;;;;;16.17;11.32;;;;;;;;;;5025128;28;20429;-94
2022/03/04 12:34:01;;;;;;;19.05;12.55;;;;;;;;;;5025113;28;20414;-92
2022/03/04 12:36:29;;;;;;;16.70;11.30;;;;;;;;;;5021835;28;20558;-93
2022/03/04 12:38:58;;;;;;;15.98;11.98;;;;;;;;;;5025931;28;20406;-94
2022/03/04 12:41:28;;;;;;;16.42;12.13;;;;;;;;;;5027087;28;20666;-93
2022/03/04 12:43:57;;;;;;;16.25;11.45;;;;;;;;;;5027262;28;20421;-94
2022/03/04 12:46:26;;;;;;;15.02;11.32;;;;;;;;;;5028668;28;20435;-94
2022/03/04 12:48:55;;;;;;;19.10;12.70;;;;;;;;;;5015395;28;20405;-94
2022/03/04 12:51:39;;;;;;;14.35;11.07;;;;;;;;;;5022459;28;20799;-95
2022/03/04 12:54:14;;;;;;;16.27;11.07;;;;;;;;;;5023770;28;21259;-93
2022/03/04 12:56:43;;;;;;;16.42;11.10;;;;;;;;;;5028305;28;20413;-93
2022/03/04 12:59:12;;;;;;;17.90;11.60;;;;;;;;;;5028802;28;20509;-95
2022/03/04 13:01:45;;;;;;;15.18;11.05;;;;;;;;;;5026847;28;20420;-95
2022/03/04 13:04:12;;;;;;;15.55;10.90;;;;;;;;;;5025994;28;20413;-94
2022/03/04 13:06:39;;;;;;;17.10;11.25;;;;;;;;;;5027371;28;20417;-95
2022/03/04 13:09:07;;;;;;;16.35;11.25;;;;;;;;;;5025111;28;20782;-95
2022/03/04 13:11:37;;;;;;;15.32;11.00;;;;;;;;;;5029191;28;21027;-95
2022/03/04 13:14:07;;;;;;;14.90;11.43;;;;;;;;;;5036822;28;20444;-90
2022/03/04 13:16:43;;;;;;;53.33;32.70;;;;;;;;;;5027799;28;20893;-95
2022/03/04 13:19:12;;;;;;;16.83;12.20;;;;;;;;;;5030609;28;20476;-93
2022/03/04 13:21:44;;;;;;;17.92;13.80;;;;;;;;;;5032297;28;20409;-94
2022/03/04 13:24:15;;;;;;;14.93;11.05;;;;;;;;;;5027564;28;20429;-94
2022/03/04 13:26:51;;;;;;;16.42;12.05;;;;;;;;;;5032018;28;20421;-95
2022/03/04 13:29:20;;;;;;;17.33;12.70;;;;;;;;;;5030117;28;20469;-93
2022/03/04 13:31:48;;;;;;;17.35;12.20;;;;;;;;;;5032052;28;20408;-93
2022/03/04 13:34:15;;;;;;;15.75;12.30;;;;;;;;;;5031822;28;20415;-93
2022/03/04 13:36:50;;;;;;;15.45;11.80;;;;;;;;;;5031965;28;20416;-94
2022/03/04 13:39:25;;;;;;;17.63;12.97;;;;;;;;;;5029433;28;20400;-93
2022/03/04 13:42:26;;;;;;;17.17;11.77;;;;;;;;;;5026302;28;20986;-94
2022/03/04 13:45:03;;;;;;;16.42;12.35;;;;;;;;;;5027536;28;20420;-94
2022/03/04 13:47:43;;;;;;;18.37;13.00;;;;;;;;;;5026645;28;20452;-94
2022/03/04 13:50:27;;;;;;;17.63;12.85;;;;;;;;;;5024951;28;20500;-93
2022/03/04 13:52:58;;;;;;;16.02;11.98;;;;;;;;;;5029013;28;20934;-93
2022/03/04 13:55:33;;;;;;;17.52;12.63;;;;;;;;;;5029203;28;20413;-93
2022/03/04 13:58:07;;;;;;;15.52;12.25;;;;;;;;;;5030741;28;20435;-93
2022/03/04 14:00:38;;;;;;;16.27;12.45;;;;;;;;;;5030232;28;20540;-93
2022/03/04 14:03:07;;;;;;;17.20;12.02;;;;;;;;;;5031427;28;20431;-94
2022/03/04 14:05:36;;;;;;;17.00;12.15;;;;;;;;;;5035996;28;20404;-94
2022/03/04 14:08:05;;;;;;;15.88;11.80;;;;;;;;;;5032909;28;20401;-94
2022/03/04 14:10:33;;;;;;;15.48;11.68;;;;;;;;;;5031564;28;20915;-94
2022/03/04 14:13:02;;;;;;;15.40;11.90;;;;;;;;;;5035919;28;20419;-93
2022/03/04 14:15:29;;;;;;;16.10;11.77;;;;;;;;;;5041421;28;20407;-93
2022/03/04 14:18:00;;;;;;;16.00;11.85;;;;;;;;;;5056118;28;20408;-95
2022/03/04 14:20:28;;;;;;;15.32;11.73;;;;;;;;;;5053369;28;20393;-90
2022/03/04 14:22:56;;;;;;;15.63;11.50;;;;;;;;;;5048602;28;20437;-94
2022/03/04 14:25:24;;;;;;;20.52;11.20;;;;;;;;;;5048828;28;20501;-95
2022/03/04 14:27:52;;;;;;;14.75;11.45;;;;;;;;;;5047307;28;20444;-95